Language selection

My Weather Profile Weather Topics  | 

Lake of the Woods: Past 24 Hour Conditions

 

Sault Ste. Marie Airport

06:00 PM EST 05 February 2023
Disclaimer

This table is a summary of hourly weather conditions for the past 24 hours.
Please note that these observations might not always be representative of weather conditions over their associated marine area.

Date / Time
(EST)
Wind(knots) Conditions Visibility(km) Pressure(kPa) Air tempC) Relative humidity(%) Dew pointC) Wind Chill
05 February 2023
18:00 NW 17 Light Snow 10 101.5 -6 78 -9 -15
17:00 NW 19 gust 25 Blowing Snow 10 101.3 -5 81 -8 -14
16:00 NW 19 gust 26 Light Snow and Blowing Snow 5 101.2 -4 89 -6 -13
15:00 WNW 11 Light Snow 5 101.0 -3 89 -4 -9
14:00 WNW 9 Mist 8 101.0 -3 89 -5 -9
13:00 WNW 9 Light Snow 8 100.9 -3 88 -5 -9
12:00 WNW 8 Light Snow 10 100.9 -4 93 -5 -9
11:00 WSW 3 Light Snow 3 100.9 -6 97 -6 -9
10:00 WSW 3 Mist 8 100.9 -7 96 -8 -10
9:00 N 1 Mist 10 100.9 -9 94 -10 -10
8:00 N 3 Mist 10 100.8 -11 92 -12 -14
7:00 ENE 2 Mostly Cloudy 13 100.8 -11 92 -12 -13
6:00 NE 2 Mostly Cloudy 16 100.8 -13 91 -14 -15
5:00 NE 2 Mostly Cloudy 16 100.8 -13 90 -14 -16
4:00 N 1 Partly Cloudy 16 100.8 -15 88 -16 -16
3:00 E 2 Partly Cloudy 16 100.9 -14 90 -15 -16
2:00 E 2 Mostly Cloudy 16 100.9 -14 91 -15 -16
1:00 N 2 Mostly Cloudy 19 101.0 -10 95 -11 -12
0:00 N 1 Mostly Cloudy 19 101.0 -7 96 -7 -8
04 February 2023
23:00 W 4 Mostly Cloudy 19 101.1 -4 83 -7 -8
22:00 NNE 3 Mostly Cloudy 19 101.1 -6 93 -7 -8
21:00 NE 2 Cloudy 24 101.1 -6 94 -7 -8
20:00 NE 3 Cloudy 24 101.1 -6 93 -7 -9
19:00 W 3 Mostly Cloudy 24 101.2 -5 85 -7 -7
18:00 SW 5 Cloudy 24 101.2 -4 80 -7 -8

Zoom-in to make a selection

Map of Great Lakes - Lake Superior marine weather areas Mid Superior - 45001 East Superior - 45004 West Superior - 45006 Slate Island - 45136 Lake Of the Woods - 45148 Kenora Airport Royal Island Armstrong Airport Caribou Island Marathon Airport Pukaskwa National Park Thunder Bay Airport Welcome Island Little Flatland Island Sault Ste. Marie Airport Wawa Airport
Legend:
buoy Buoy
land station Land Station

Great Lakes - Lake Superior Area

Another Region

What we are doing

Date modified: